Eckley, CO (80727)

9:44 PM MDT on September 20, 2014 (GMT -0600)
KCOYUMA4 | Change Station
CLOSE
Current Station
Personal Weather Station
Location: Yuma, CO
Elevation: 4134 ft
Nearby Weather Stations

Elev 4134 ft 40.12 °N, 102.72 °W | Updated 1 minute ago

Clear
Clear
68.1 °F
Feels Like 68.1 °F
N
6.0
Wind Variable Wind from North
Gusts 6.0 mph

Today
High -- | Low -- °F
--% Chance of Precip.
Yesterday
High -- | Low -- °F
Precip. -- in
6:35 AM 6:50 PM
Waning Crescent, 9% visible
Pressure 30.23 in
Visibility 10.0 miles
Clouds Overcast 8500 ft
Dew Point 51 °F
Humidity 54%
Rainfall 0.00 in
Snow Depth 0 in , 187 in , 0 in
UV 0.0 out of 12
Pollen 6.10 out of 12
Air Quality Not available.
Flu Activity Not available.
METAR K2V5 210335Z AUTO 35006KT 10SM OVC085 19/11 A3023 RMK AO2 T01890105

More Conditions Fewer Conditions

Pressure 30.23 in
Visibility 10.0 miles
Clouds Overcast 8500 ft
Dew Point 51 °F
Humidity 54%
Rainfall 0.00 in
Snow Depth 0 in , 187 in , 0 in
UV 0.0 out of 12
Pollen 6.10 out of 12
Air Quality Not available.
Flu Activity Not available.
METAR K2V5 210335Z AUTO 35006KT 10SM OVC085 19/11 A3023 RMK AO2 T01890105

More Conditions Fewer Conditions

10-Day Weather Forecast

Almanac

Astronomy

Sep. 20, 2014 Rise Set
Actual Time 6:35 AM MDT 6:50 PM MDT
Civil Twilight 6:08 AM MDT 7:17 PM MDT
Nautical Twilight 5:36 AM MDT 7:49 PM MDT
Astronomical Twilight 5:04 AM MDT 8:21 PM MDT
Moon 3:16 AM MDT (9/20) 4:55 PM MDT (9/20)
Length of Visible Light 13h 08m
Length of Day
12h 14m
Tomorrow will be 2m 37s shorter.
Waning Crescent, 9% of the Moon is Illuminated
Today
Waning Crescent
Sep 24
New
Oct 1
First Quarter
Oct 8
Full
Oct 15
Last Quarter

Today's Extremes

State Highs State Lows

Community

WunderPhotos

Upload Photos

1,755,072 photos uploaded!

Nearby

Snow Depth

Station Depth Elevation
Wolf Creek Summit 0 in 11000 ft
Independence Pass 187 in 10600 ft
Hoosier Pass 0 in 11400 ft
Rough And Tumble 1 in 10360 ft
Rabbit Ears 0 in 9400 ft

Earthquake Activity

City Distance Mag. Time & Date
No recent earthquake activity has been reported nearby.
Minimum magnitude displayed is 2.5.

Coastal Water Temperatures

Place Temperature
No Stations Reporting

Nearby Weather Stations